sensor_id;sensor_type;location;lat;lon;timestamp;P1;durP1;ratioP1;P2;durP2;ratioP2
36441;SDS011;64346;50.820;16.274;2023-07-08T00:00:53;10.23;;;4.70;;
36441;SDS011;64346;50.820;16.274;2023-07-08T00:03:46;8.88;;;3.97;;
36441;SDS011;64346;50.820;16.274;2023-07-08T00:06:26;9.50;;;3.90;;
36441;SDS011;64346;50.820;16.274;2023-07-08T00:08:54;9.15;;;4.22;;
36441;SDS011;64346;50.820;16.274;2023-07-08T00:11:22;11.65;;;4.68;;
36441;SDS011;64346;50.820;16.274;2023-07-08T00:13:53;10.05;;;4.60;;
36441;SDS011;64346;50.820;16.274;2023-07-08T00:16:20;9.52;;;4.47;;
36441;SDS011;64346;50.820;16.274;2023-07-08T00:18:50;7.47;;;4.07;;
36441;SDS011;64346;50.820;16.274;2023-07-08T00:21:20;10.23;;;4.60;;
36441;SDS011;64346;50.820;16.274;2023-07-08T00:23:47;9.82;;;4.43;;
36441;SDS011;64346;50.820;16.274;2023-07-08T00:26:30;8.55;;;4.53;;
36441;SDS011;64346;50.820;16.274;2023-07-08T00:28:57;8.23;;;4.68;;
36441;SDS011;64346;50.820;16.274;2023-07-08T00:31:25;8.65;;;4.40;;
36441;SDS011;64346;50.820;16.274;2023-07-08T00:33:53;6.47;;;3.88;;
36441;SDS011;64346;50.820;16.274;2023-07-08T00:36:26;9.52;;;4.50;;
36441;SDS011;64346;50.820;16.274;2023-07-08T00:38:54;8.30;;;4.38;;
36441;SDS011;64346;50.820;16.274;2023-07-08T00:41:27;7.28;;;4.28;;
36441;SDS011;64346;50.820;16.274;2023-07-08T00:43:58;8.05;;;3.72;;
36441;SDS011;64346;50.820;16.274;2023-07-08T00:51:34;8.63;;;3.90;;
36441;SDS011;64346;50.820;16.274;2023-07-08T00:54:02;10.50;;;4.53;;
36441;SDS011;64346;50.820;16.274;2023-07-08T00:56:38;9.07;;;4.28;;
36441;SDS011;64346;50.820;16.274;2023-07-08T00:59:22;10.25;;;4.45;;
36441;SDS011;64346;50.820;16.274;2023-07-08T01:01:57;9.70;;;4.28;;
36441;SDS011;64346;50.820;16.274;2023-07-08T01:07:09;9.35;;;3.80;;
36441;SDS011;64346;50.820;16.274;2023-07-08T01:09:45;9.32;;;3.80;;
36441;SDS011;64346;50.820;16.274;2023-07-08T01:12:14;8.70;;;4.07;;
36441;SDS011;64346;50.820;16.274;2023-07-08T01:14:47;8.80;;;3.83;;
36441;SDS011;64346;50.820;16.274;2023-07-08T01:17:15;9.02;;;4.13;;
36441;SDS011;64346;50.820;16.274;2023-07-08T01:19:45;8.00;;;3.85;;
36441;SDS011;64346;50.820;16.274;2023-07-08T01:22:13;7.57;;;4.03;;
36441;SDS011;64346;50.820;16.274;2023-07-08T01:24:41;6.60;;;3.78;;
36441;SDS011;64346;50.820;16.274;2023-07-08T01:27:13;9.45;;;4.35;;
36441;SDS011;64346;50.820;16.274;2023-07-08T01:29:43;7.85;;;3.72;;
36441;SDS011;64346;50.820;16.274;2023-07-08T01:32:12;9.15;;;4.28;;
36441;SDS011;64346;50.820;16.274;2023-07-08T01:34:40;10.15;;;4.47;;
36441;SDS011;64346;50.820;16.274;2023-07-08T01:37:09;10.30;;;4.63;;
36441;SDS011;64346;50.820;16.274;2023-07-08T01:39:38;10.60;;;4.82;;
36441;SDS011;64346;50.820;16.274;2023-07-08T01:42:06;8.32;;;4.22;;
36441;SDS011;64346;50.820;16.274;2023-07-08T01:44:34;9.90;;;4.20;;
36441;SDS011;64346;50.820;16.274;2023-07-08T01:47:05;9.18;;;4.70;;
36441;SDS011;64346;50.820;16.274;2023-07-08T01:49:42;11.55;;;5.07;;
36441;SDS011;64346;50.820;16.274;2023-07-08T01:52:14;10.80;;;5.18;;
36441;SDS011;64346;50.820;16.274;2023-07-08T01:54:44;12.15;;;5.60;;
36441;SDS011;64346;50.820;16.274;2023-07-08T01:57:12;11.48;;;4.93;;
36441;SDS011;64346;50.820;16.274;2023-07-08T01:59:39;10.38;;;5.35;;
36441;SDS011;64346;50.820;16.274;2023-07-08T02:02:06;14.73;;;5.38;;
36441;SDS011;64346;50.820;16.274;2023-07-08T02:04:33;10.43;;;5.38;;
36441;SDS011;64346;50.820;16.274;2023-07-08T02:07:01;12.27;;;4.95;;
36441;SDS011;64346;50.820;16.274;2023-07-08T02:09:28;12.85;;;5.25;;
36441;SDS011;64346;50.820;16.274;2023-07-08T02:11:58;13.15;;;5.18;;
36441;SDS011;64346;50.820;16.274;2023-07-08T02:14:30;11.48;;;5.13;;
36441;SDS011;64346;50.820;16.274;2023-07-08T02:16:57;11.52;;;4.70;;
36441;SDS011;64346;50.820;16.274;2023-07-08T02:19:27;9.10;;;4.82;;
36441;SDS011;64346;50.820;16.274;2023-07-08T02:21:54;10.18;;;4.95;;
36441;SDS011;64346;50.820;16.274;2023-07-08T02:24:24;12.93;;;6.30;;
36441;SDS011;64346;50.820;16.274;2023-07-08T02:26:51;10.40;;;5.75;;
36441;SDS011;64346;50.820;16.274;2023-07-08T02:29:18;12.55;;;6.38;;
36441;SDS011;64346;50.820;16.274;2023-07-08T02:31:48;13.48;;;6.00;;
36441;SDS011;64346;50.820;16.274;2023-07-08T02:34:17;11.25;;;5.38;;
36441;SDS011;64346;50.820;16.274;2023-07-08T02:36:45;8.88;;;4.50;;
36441;SDS011;64346;50.820;16.274;2023-07-08T02:39:12;10.40;;;5.47;;
36441;SDS011;64346;50.820;16.274;2023-07-08T02:41:40;10.23;;;5.38;;
36441;SDS011;64346;50.820;16.274;2023-07-08T02:44:07;10.32;;;5.28;;
36441;SDS011;64346;50.820;16.274;2023-07-08T02:46:34;9.68;;;5.35;;
36441;SDS011;64346;50.820;16.274;2023-07-08T02:49:01;10.50;;;5.00;;
36441;SDS011;64346;50.820;16.274;2023-07-08T02:51:29;10.07;;;4.82;;
36441;SDS011;64346;50.820;16.274;2023-07-08T02:53:59;11.98;;;5.20;;
36441;SDS011;64346;50.820;16.274;2023-07-08T02:56:26;10.60;;;4.85;;
36441;SDS011;64346;50.820;16.274;2023-07-08T02:58:53;10.32;;;5.00;;
36441;SDS011;64346;50.820;16.274;2023-07-08T03:01:23;10.43;;;5.15;;
36441;SDS011;64346;50.820;16.274;2023-07-08T03:03:50;10.07;;;5.03;;
36441;SDS011;64346;50.820;16.274;2023-07-08T03:06:18;9.88;;;5.13;;
36441;SDS011;64346;50.820;16.274;2023-07-08T03:08:45;10.73;;;4.90;;
36441;SDS011;64346;50.820;16.274;2023-07-08T03:11:12;11.80;;;4.70;;
36441;SDS011;64346;50.820;16.274;2023-07-08T03:13:44;10.93;;;5.20;;
36441;SDS011;64346;50.820;16.274;2023-07-08T03:16:11;11.32;;;5.53;;
36441;SDS011;64346;50.820;16.274;2023-07-08T03:18:40;10.23;;;5.10;;
36441;SDS011;64346;50.820;16.274;2023-07-08T03:21:09;12.00;;;5.55;;
36441;SDS011;64346;50.820;16.274;2023-07-08T03:23:42;11.77;;;5.68;;
36441;SDS011;64346;50.820;16.274;2023-07-08T03:26:22;10.52;;;5.22;;
36441;SDS011;64346;50.820;16.274;2023-07-08T03:28:51;12.20;;;5.65;;
36441;SDS011;64346;50.820;16.274;2023-07-08T03:31:19;10.43;;;5.35;;
36441;SDS011;64346;50.820;16.274;2023-07-08T03:33:46;11.60;;;5.50;;
36441;SDS011;64346;50.820;16.274;2023-07-08T03:36:15;11.23;;;5.45;;
36441;SDS011;64346;50.820;16.274;2023-07-08T03:38:46;9.68;;;5.10;;
36441;SDS011;64346;50.820;16.274;2023-07-08T03:41:15;11.07;;;5.50;;
36441;SDS011;64346;50.820;16.274;2023-07-08T03:43:42;12.60;;;6.70;;
36441;SDS011;64346;50.820;16.274;2023-07-08T03:46:16;11.85;;;6.43;;
36441;SDS011;64346;50.820;16.274;2023-07-08T03:48:44;12.95;;;5.70;;
36441;SDS011;64346;50.820;16.274;2023-07-08T03:51:14;12.23;;;5.63;;
36441;SDS011;64346;50.820;16.274;2023-07-08T03:53:48;13.20;;;5.82;;
36441;SDS011;64346;50.820;16.274;2023-07-08T03:56:15;9.90;;;5.05;;
36441;SDS011;64346;50.820;16.274;2023-07-08T03:58:42;10.02;;;4.75;;
36441;SDS011;64346;50.820;16.274;2023-07-08T04:01:14;10.77;;;5.13;;
36441;SDS011;64346;50.820;16.274;2023-07-08T04:03:43;13.60;;;5.55;;
36441;SDS011;64346;50.820;16.274;2023-07-08T04:06:11;11.07;;;5.05;;
36441;SDS011;64346;50.820;16.274;2023-07-08T04:08:39;9.98;;;5.10;;
36441;SDS011;64346;50.820;16.274;2023-07-08T04:11:08;11.23;;;4.95;;
36441;SDS011;64346;50.820;16.274;2023-07-08T04:13:38;11.32;;;5.25;;
36441;SDS011;64346;50.820;16.274;2023-07-08T04:16:06;14.43;;;5.50;;
36441;SDS011;64346;50.820;16.274;2023-07-08T04:18:34;9.77;;;4.30;;
36441;SDS011;64346;50.820;16.274;2023-07-08T04:21:03;12.02;;;4.53;;
36441;SDS011;64346;50.820;16.274;2023-07-08T04:23:33;10.30;;;3.70;;
36441;SDS011;64346;50.820;16.274;2023-07-08T04:26:00;8.50;;;4.32;;
36441;SDS011;64346;50.820;16.274;2023-07-08T04:28:28;10.98;;;4.03;;
36441;SDS011;64346;50.820;16.274;2023-07-08T04:31:00;10.85;;;4.43;;
36441;SDS011;64346;50.820;16.274;2023-07-08T04:33:32;8.55;;;4.30;;
36441;SDS011;64346;50.820;16.274;2023-07-08T04:35:59;12.15;;;5.53;;
36441;SDS011;64346;50.820;16.274;2023-07-08T04:38:27;10.13;;;4.13;;
36441;SDS011;64346;50.820;16.274;2023-07-08T04:40:56;7.75;;;4.03;;
36441;SDS011;64346;50.820;16.274;2023-07-08T04:43:31;8.65;;;3.85;;
36441;SDS011;64346;50.820;16.274;2023-07-08T04:45:59;8.35;;;3.67;;
36441;SDS011;64346;50.820;16.274;2023-07-08T04:48:27;7.45;;;3.50;;
36441;SDS011;64346;50.820;16.274;2023-07-08T04:50:54;9.52;;;4.20;;
36441;SDS011;64346;50.820;16.274;2023-07-08T04:53:21;9.73;;;4.50;;
36441;SDS011;64346;50.820;16.274;2023-07-08T04:55:57;6.40;;;3.67;;
36441;SDS011;64346;50.820;16.274;2023-07-08T04:58:25;8.13;;;3.85;;
36441;SDS011;64346;50.820;16.274;2023-07-08T05:00:52;7.80;;;3.92;;
36441;SDS011;64346;50.820;16.274;2023-07-08T05:03:19;8.30;;;4.00;;
36441;SDS011;64346;50.820;16.274;2023-07-08T05:05:47;9.45;;;4.40;;
36441;SDS011;64346;50.820;16.274;2023-07-08T05:08:17;8.68;;;3.58;;
36441;SDS011;64346;50.820;16.274;2023-07-08T05:10:44;10.35;;;4.50;;
36441;SDS011;64346;50.820;16.274;2023-07-08T05:13:14;8.38;;;3.58;;
36441;SDS011;64346;50.820;16.274;2023-07-08T05:15:41;9.63;;;4.30;;
36441;SDS011;64346;50.820;16.274;2023-07-08T05:18:11;8.52;;;4.38;;
36441;SDS011;64346;50.820;16.274;2023-07-08T05:20:40;8.82;;;3.40;;
36441;SDS011;64346;50.820;16.274;2023-07-08T05:23:16;6.25;;;3.42;;
36441;SDS011;64346;50.820;16.274;2023-07-08T05:25:43;6.85;;;3.55;;
36441;SDS011;64346;50.820;16.274;2023-07-08T05:28:10;5.35;;;2.88;;
36441;SDS011;64346;50.820;16.274;2023-07-08T05:30:40;7.43;;;3.20;;
36441;SDS011;64346;50.820;16.274;2023-07-08T05:33:08;8.45;;;3.80;;
36441;SDS011;64346;50.820;16.274;2023-07-08T05:35:38;7.45;;;3.60;;
36441;SDS011;64346;50.820;16.274;2023-07-08T05:38:05;8.15;;;3.35;;
36441;SDS011;64346;50.820;16.274;2023-07-08T05:40:32;7.10;;;2.95;;
36441;SDS011;64346;50.820;16.274;2023-07-08T05:43:00;6.75;;;3.58;;
36441;SDS011;64346;50.820;16.274;2023-07-08T05:45:27;6.57;;;3.10;;
36441;SDS011;64346;50.820;16.274;2023-07-08T05:47:54;10.32;;;3.10;;
36441;SDS011;64346;50.820;16.274;2023-07-08T05:50:22;6.90;;;3.25;;
36441;SDS011;64346;50.820;16.274;2023-07-08T05:52:49;6.65;;;3.28;;
36441;SDS011;64346;50.820;16.274;2023-07-08T05:55:17;7.25;;;3.38;;
36441;SDS011;64346;50.820;16.274;2023-07-08T05:57:44;4.32;;;2.67;;
36441;SDS011;64346;50.820;16.274;2023-07-08T06:00:11;8.93;;;2.80;;
36441;SDS011;64346;50.820;16.274;2023-07-08T06:02:51;7.50;;;2.80;;
36441;SDS011;64346;50.820;16.274;2023-07-08T06:05:19;5.72;;;3.00;;
36441;SDS011;64346;50.820;16.274;2023-07-08T06:07:46;6.18;;;2.85;;
36441;SDS011;64346;50.820;16.274;2023-07-08T06:10:13;5.45;;;2.80;;
36441;SDS011;64346;50.820;16.274;2023-07-08T06:12:41;5.85;;;3.03;;
36441;SDS011;64346;50.820;16.274;2023-07-08T06:15:08;4.85;;;2.60;;
36441;SDS011;64346;50.820;16.274;2023-07-08T06:17:36;5.43;;;2.85;;
36441;SDS011;64346;50.820;16.274;2023-07-08T06:20:04;6.28;;;2.50;;
36441;SDS011;64346;50.820;16.274;2023-07-08T06:22:34;4.65;;;2.35;;
36441;SDS011;64346;50.820;16.274;2023-07-08T06:25:04;4.25;;;2.95;;
36441;SDS011;64346;50.820;16.274;2023-07-08T06:27:32;5.45;;;2.90;;
36441;SDS011;64346;50.820;16.274;2023-07-08T06:29:59;6.65;;;3.17;;
36441;SDS011;64346;50.820;16.274;2023-07-08T06:32:26;4.15;;;2.80;;
36441;SDS011;64346;50.820;16.274;2023-07-08T06:34:54;5.35;;;3.05;;
36441;SDS011;64346;50.820;16.274;2023-07-08T06:37:21;5.40;;;3.63;;
36441;SDS011;64346;50.820;16.274;2023-07-08T06:39:51;5.18;;;2.63;;
36441;SDS011;64346;50.820;16.274;2023-07-08T06:42:18;7.70;;;3.40;;
36441;SDS011;64346;50.820;16.274;2023-07-08T06:44:46;3.63;;;2.70;;
36441;SDS011;64346;50.820;16.274;2023-07-08T06:47:13;3.33;;;2.20;;
36441;SDS011;64346;50.820;16.274;2023-07-08T06:49:42;4.43;;;2.55;;
36441;SDS011;64346;50.820;16.274;2023-07-08T06:52:10;7.10;;;3.10;;
36441;SDS011;64346;50.820;16.274;2023-07-08T06:54:39;5.22;;;2.60;;
36441;SDS011;64346;50.820;16.274;2023-07-08T06:57:07;6.97;;;3.08;;
36441;SDS011;64346;50.820;16.274;2023-07-08T06:59:34;6.47;;;2.72;;
36441;SDS011;64346;50.820;16.274;2023-07-08T07:02:04;3.47;;;2.30;;
36441;SDS011;64346;50.820;16.274;2023-07-08T07:04:34;6.88;;;4.45;;
36441;SDS011;64346;50.820;16.274;2023-07-08T07:07:01;6.50;;;3.90;;
36441;SDS011;64346;50.820;16.274;2023-07-08T07:09:32;3.35;;;2.55;;
36441;SDS011;64346;50.820;16.274;2023-07-08T07:12:00;6.28;;;3.25;;
36441;SDS011;64346;50.820;16.274;2023-07-08T07:14:28;6.68;;;2.90;;
36441;SDS011;64346;50.820;16.274;2023-07-08T07:17:00;4.32;;;2.67;;
36441;SDS011;64346;50.820;16.274;2023-07-08T07:19:35;5.50;;;2.78;;
36441;SDS011;64346;50.820;16.274;2023-07-08T07:22:02;4.50;;;2.53;;
36441;SDS011;64346;50.820;16.274;2023-07-08T07:24:35;4.72;;;3.30;;
36441;SDS011;64346;50.820;16.274;2023-07-08T07:27:04;5.13;;;3.08;;
36441;SDS011;64346;50.820;16.274;2023-07-08T07:29:42;3.05;;;2.60;;
36441;SDS011;64346;50.820;16.274;2023-07-08T07:32:10;7.23;;;3.17;;
36441;SDS011;64346;50.820;16.274;2023-07-08T07:34:39;5.28;;;3.55;;
36441;SDS011;64346;50.820;16.274;2023-07-08T07:37:10;3.53;;;2.70;;
36441;SDS011;64346;50.820;16.274;2023-07-08T07:39:40;4.95;;;2.90;;
36441;SDS011;64346;50.820;16.274;2023-07-08T07:42:08;4.13;;;2.75;;
36441;SDS011;64346;50.820;16.274;2023-07-08T07:44:38;4.57;;;2.90;;
36441;SDS011;64346;50.820;16.274;2023-07-08T07:47:07;6.40;;;3.40;;
36441;SDS011;64346;50.820;16.274;2023-07-08T07:52:02;3.40;;;2.80;;
36441;SDS011;64346;50.820;16.274;2023-07-08T07:54:33;7.13;;;2.85;;
36441;SDS011;64346;50.820;16.274;2023-07-08T07:57:00;5.90;;;3.10;;
36441;SDS011;64346;50.820;16.274;2023-07-08T07:59:27;5.32;;;3.25;;
36441;SDS011;64346;50.820;16.274;2023-07-08T08:01:54;4.90;;;3.08;;
36441;SDS011;64346;50.820;16.274;2023-07-08T08:04:24;4.05;;;2.78;;
36441;SDS011;64346;50.820;16.274;2023-07-08T08:06:52;5.70;;;3.10;;
36441;SDS011;64346;50.820;16.274;2023-07-08T08:09:19;6.57;;;3.42;;
36441;SDS011;64346;50.820;16.274;2023-07-08T08:11:49;4.30;;;3.30;;
36441;SDS011;64346;50.820;16.274;2023-07-08T08:14:16;3.33;;;2.80;;
36441;SDS011;64346;50.820;16.274;2023-07-08T08:16:44;4.82;;;3.00;;
36441;SDS011;64346;50.820;16.274;2023-07-08T08:19:11;5.88;;;3.50;;
36441;SDS011;64346;50.820;16.274;2023-07-08T08:21:39;5.22;;;3.97;;
36441;SDS011;64346;50.820;16.274;2023-07-08T08:24:06;5.45;;;3.60;;
36441;SDS011;64346;50.820;16.274;2023-07-08T08:26:33;5.22;;;3.33;;
36441;SDS011;64346;50.820;16.274;2023-07-08T08:29:01;6.85;;;3.20;;
36441;SDS011;64346;50.820;16.274;2023-07-08T08:31:28;8.07;;;4.35;;
36441;SDS011;64346;50.820;16.274;2023-07-08T08:33:56;5.53;;;3.42;;
36441;SDS011;64346;50.820;16.274;2023-07-08T08:36:23;4.78;;;3.40;;
36441;SDS011;64346;50.820;16.274;2023-07-08T08:38:53;4.60;;;2.90;;
36441;SDS011;64346;50.820;16.274;2023-07-08T08:41:30;5.45;;;2.90;;
36441;SDS011;64346;50.820;16.274;2023-07-08T08:44:00;4.82;;;2.80;;
36441;SDS011;64346;50.820;16.274;2023-07-08T08:49:35;5.50;;;3.70;;
36441;SDS011;64346;50.820;16.274;2023-07-08T08:51:59;6.00;;;3.08;;
36441;SDS011;64346;50.820;16.274;2023-07-08T08:54:29;7.22;;;3.10;;
36441;SDS011;64346;50.820;16.274;2023-07-08T08:59:55;6.35;;;3.25;;
36441;SDS011;64346;50.820;16.274;2023-07-08T09:05:07;7.95;;;4.03;;
36441;SDS011;64346;50.820;16.274;2023-07-08T09:10:44;8.52;;;2.90;;
36441;SDS011;64346;50.820;16.274;2023-07-08T09:13:28;8.27;;;4.68;;
36441;SDS011;64346;50.820;16.274;2023-07-08T09:21:21;6.68;;;3.17;;
36441;SDS011;64346;50.820;16.274;2023-07-08T09:23:54;5.65;;;3.03;;
36441;SDS011;64346;50.820;16.274;2023-07-08T09:26:26;14.77;;;3.38;;
36441;SDS011;64346;50.820;16.274;2023-07-08T09:28:58;6.60;;;3.33;;
36441;SDS011;64346;50.820;16.274;2023-07-08T09:36:43;6.38;;;3.10;;
36441;SDS011;64346;50.820;16.274;2023-07-08T09:39:14;6.03;;;3.10;;
36441;SDS011;64346;50.820;16.274;2023-07-08T09:41:48;6.25;;;3.03;;
36441;SDS011;64346;50.820;16.274;2023-07-08T09:44:23;7.97;;;3.10;;
36441;SDS011;64346;50.820;16.274;2023-07-08T09:46:56;7.63;;;3.25;;
36441;SDS011;64346;50.820;16.274;2023-07-08T09:49:29;7.03;;;3.35;;
36441;SDS011;64346;50.820;16.274;2023-07-08T09:52:02;9.02;;;3.65;;
36441;SDS011;64346;50.820;16.274;2023-07-08T09:54:31;8.90;;;3.38;;
36441;SDS011;64346;50.820;16.274;2023-07-08T09:56:59;5.72;;;3.28;;
36441;SDS011;64346;50.820;16.274;2023-07-08T10:02:00;8.55;;;3.47;;
36441;SDS011;64346;50.820;16.274;2023-07-08T10:04:29;8.40;;;3.58;;
36441;SDS011;64346;50.820;16.274;2023-07-08T10:06:58;6.57;;;3.22;;
36441;SDS011;64346;50.820;16.274;2023-07-08T10:09:26;6.10;;;3.00;;
36441;SDS011;64346;50.820;16.274;2023-07-08T10:11:56;4.40;;;2.90;;
36441;SDS011;64346;50.820;16.274;2023-07-08T10:14:29;6.55;;;3.50;;
36441;SDS011;64346;50.820;16.274;2023-07-08T10:17:13;7.57;;;3.33;;
36441;SDS011;64346;50.820;16.274;2023-07-08T10:19:45;7.28;;;3.47;;
36441;SDS011;64346;50.820;16.274;2023-07-08T10:22:22;7.25;;;3.25;;
36441;SDS011;64346;50.820;16.274;2023-07-08T10:28:34;5.53;;;3.53;;
36441;SDS011;64346;50.820;16.274;2023-07-08T10:31:06;6.60;;;3.17;;
36441;SDS011;64346;50.820;16.274;2023-07-08T10:34:01;6.40;;;3.28;;
36441;SDS011;64346;50.820;16.274;2023-07-08T10:53:02;7.35;;;3.70;;
36441;SDS011;64346;50.820;16.274;2023-07-08T10:55:51;6.15;;;3.25;;
36441;SDS011;64346;50.820;16.274;2023-07-08T10:58:27;5.63;;;3.20;;
36441;SDS011;64346;50.820;16.274;2023-07-08T11:09:30;8.88;;;4.13;;
36441;SDS011;64346;50.820;16.274;2023-07-08T11:12:23;7.35;;;3.67;;
36441;SDS011;64346;50.820;16.274;2023-07-08T11:15:21;9.45;;;4.97;;
36441;SDS011;64346;50.820;16.274;2023-07-08T11:20:34;7.95;;;3.55;;
36441;SDS011;64346;50.820;16.274;2023-07-08T11:23:38;7.70;;;3.70;;
36441;SDS011;64346;50.820;16.274;2023-07-08T11:26:20;9.43;;;3.30;;
36441;SDS011;64346;50.820;16.274;2023-07-08T11:29:21;10.25;;;4.45;;
36441;SDS011;64346;50.820;16.274;2023-07-08T11:32:03;7.85;;;3.40;;
36441;SDS011;64346;50.820;16.274;2023-07-08T11:34:35;7.57;;;3.35;;
36441;SDS011;64346;50.820;16.274;2023-07-08T11:37:04;5.80;;;3.53;;
36441;SDS011;64346;50.820;16.274;2023-07-08T11:39:33;6.13;;;3.47;;
36441;SDS011;64346;50.820;16.274;2023-07-08T11:44:41;7.40;;;3.75;;
36441;SDS011;64346;50.820;16.274;2023-07-08T11:47:12;8.02;;;3.75;;
36441;SDS011;64346;50.820;16.274;2023-07-08T11:49:45;5.95;;;3.10;;
36441;SDS011;64346;50.820;16.274;2023-07-08T11:52:18;6.50;;;3.67;;
36441;SDS011;64346;50.820;16.274;2023-07-08T11:54:55;8.23;;;4.13;;
36441;SDS011;64346;50.820;16.274;2023-07-08T11:57:30;8.43;;;3.22;;
36441;SDS011;64346;50.820;16.274;2023-07-08T12:00:14;8.05;;;3.70;;
36441;SDS011;64346;50.820;16.274;2023-07-08T12:03:04;7.50;;;3.75;;
36441;SDS011;64346;50.820;16.274;2023-07-08T12:05:45;7.45;;;4.47;;
36441;SDS011;64346;50.820;16.274;2023-07-08T12:08:14;9.52;;;5.60;;
36441;SDS011;64346;50.820;16.274;2023-07-08T12:10:51;9.65;;;3.95;;
36441;SDS011;64346;50.820;16.274;2023-07-08T12:13:25;7.55;;;3.80;;
36441;SDS011;64346;50.820;16.274;2023-07-08T12:15:56;6.72;;;3.33;;
36441;SDS011;64346;50.820;16.274;2023-07-08T12:18:24;9.85;;;6.70;;
36441;SDS011;64346;50.820;16.274;2023-07-08T12:20:58;12.80;;;8.48;;
36441;SDS011;64346;50.820;16.274;2023-07-08T12:23:28;9.30;;;6.05;;
36441;SDS011;64346;50.820;16.274;2023-07-08T12:25:57;13.15;;;6.38;;
36441;SDS011;64346;50.820;16.274;2023-07-08T12:28:24;9.18;;;5.13;;
36441;SDS011;64346;50.820;16.274;2023-07-08T12:30:52;10.73;;;5.70;;
36441;SDS011;64346;50.820;16.274;2023-07-08T12:33:29;8.98;;;4.63;;
36441;SDS011;64346;50.820;16.274;2023-07-08T12:36:00;10.32;;;5.10;;
36441;SDS011;64346;50.820;16.274;2023-07-08T12:38:32;8.23;;;4.00;;
36441;SDS011;64346;50.820;16.274;2023-07-08T12:41:09;8.43;;;4.93;;
36441;SDS011;64346;50.820;16.274;2023-07-08T12:43:38;7.53;;;4.40;;
36441;SDS011;64346;50.820;16.274;2023-07-08T12:46:08;8.27;;;4.22;;
36441;SDS011;64346;50.820;16.274;2023-07-08T12:48:37;8.95;;;4.70;;
36441;SDS011;64346;50.820;16.274;2023-07-08T12:51:09;10.65;;;4.88;;
36441;SDS011;64346;50.820;16.274;2023-07-08T12:53:40;8.43;;;4.68;;
36441;SDS011;64346;50.820;16.274;2023-07-08T12:56:09;7.53;;;3.97;;
36441;SDS011;64346;50.820;16.274;2023-07-08T12:58:40;7.47;;;3.92;;
36441;SDS011;64346;50.820;16.274;2023-07-08T13:01:11;10.10;;;3.90;;
36441;SDS011;64346;50.820;16.274;2023-07-08T13:03:45;7.35;;;3.63;;
36441;SDS011;64346;50.820;16.274;2023-07-08T13:06:17;7.85;;;3.80;;
36441;SDS011;64346;50.820;16.274;2023-07-08T13:08:49;9.20;;;3.85;;
36441;SDS011;64346;50.820;16.274;2023-07-08T13:11:21;7.65;;;4.22;;
36441;SDS011;64346;50.820;16.274;2023-07-08T13:13:53;8.45;;;3.78;;
36441;SDS011;64346;50.820;16.274;2023-07-08T13:16:23;7.03;;;4.22;;
36441;SDS011;64346;50.820;16.274;2023-07-08T13:18:56;7.85;;;3.75;;
36441;SDS011;64346;50.820;16.274;2023-07-08T13:21:23;7.43;;;4.07;;
36441;SDS011;64346;50.820;16.274;2023-07-08T13:23:54;9.18;;;4.18;;
36441;SDS011;64346;50.820;16.274;2023-07-08T13:26:25;8.77;;;4.65;;
36441;SDS011;64346;50.820;16.274;2023-07-08T13:29:04;5.72;;;3.30;;
36441;SDS011;64346;50.820;16.274;2023-07-08T13:31:38;6.80;;;3.63;;
36441;SDS011;64346;50.820;16.274;2023-07-08T13:34:07;7.82;;;3.45;;
36441;SDS011;64346;50.820;16.274;2023-07-08T13:36:37;7.43;;;4.18;;
36441;SDS011;64346;50.820;16.274;2023-07-08T13:39:12;7.72;;;3.97;;
36441;SDS011;64346;50.820;16.274;2023-07-08T13:41:57;5.93;;;3.42;;
36441;SDS011;64346;50.820;16.274;2023-07-08T13:44:25;8.48;;;3.83;;
36441;SDS011;64346;50.820;16.274;2023-07-08T13:46:55;7.25;;;3.72;;
36441;SDS011;64346;50.820;16.274;2023-07-08T13:49:25;12.30;;;7.00;;
36441;SDS011;64346;50.820;16.274;2023-07-08T13:52:13;8.52;;;3.97;;
36441;SDS011;64346;50.820;16.274;2023-07-08T13:54:44;7.65;;;3.85;;
36441;SDS011;64346;50.820;16.274;2023-07-08T13:57:18;10.20;;;5.65;;
36441;SDS011;64346;50.820;16.274;2023-07-08T13:59:48;9.23;;;4.70;;
36441;SDS011;64346;50.820;16.274;2023-07-08T14:02:17;8.40;;;4.20;;
36441;SDS011;64346;50.820;16.274;2023-07-08T14:04:53;22.77;;;5.05;;
36441;SDS011;64346;50.820;16.274;2023-07-08T14:07:22;7.90;;;3.90;;
36441;SDS011;64346;50.820;16.274;2023-07-08T14:09:54;6.78;;;3.95;;
36441;SDS011;64346;50.820;16.274;2023-07-08T14:12:25;8.20;;;4.10;;
36441;SDS011;64346;50.820;16.274;2023-07-08T14:14:52;10.82;;;4.47;;
36441;SDS011;64346;50.820;16.274;2023-07-08T14:17:22;7.25;;;4.40;;
36441;SDS011;64346;50.820;16.274;2023-07-08T14:19:51;8.75;;;4.47;;
36441;SDS011;64346;50.820;16.274;2023-07-08T14:24:46;7.72;;;4.03;;
36441;SDS011;64346;50.820;16.274;2023-07-08T14:27:16;8.63;;;3.95;;
36441;SDS011;64346;50.820;16.274;2023-07-08T14:29:46;7.80;;;4.18;;
36441;SDS011;64346;50.820;16.274;2023-07-08T14:32:16;9.25;;;4.00;;
36441;SDS011;64346;50.820;16.274;2023-07-08T14:34:57;11.80;;;5.25;;
36441;SDS011;64346;50.820;16.274;2023-07-08T14:37:41;7.90;;;4.05;;
36441;SDS011;64346;50.820;16.274;2023-07-08T14:42:42;8.05;;;3.90;;
36441;SDS011;64346;50.820;16.274;2023-07-08T14:45:10;6.82;;;3.47;;
36441;SDS011;64346;50.820;16.274;2023-07-08T14:47:40;8.82;;;4.85;;
36441;SDS011;64346;50.820;16.274;2023-07-08T14:50:13;8.18;;;3.72;;
36441;SDS011;64346;50.820;16.274;2023-07-08T14:52:42;9.68;;;5.10;;
36441;SDS011;64346;50.820;16.274;2023-07-08T14:55:09;8.18;;;4.35;;
36441;SDS011;64346;50.820;16.274;2023-07-08T14:57:41;7.40;;;4.10;;
36441;SDS011;64346;50.820;16.274;2023-07-08T15:00:12;7.78;;;3.83;;
36441;SDS011;64346;50.820;16.274;2023-07-08T15:02:42;7.85;;;4.15;;
36441;SDS011;64346;50.820;16.274;2023-07-08T15:05:14;7.95;;;3.70;;
36441;SDS011;64346;50.820;16.274;2023-07-08T15:07:50;10.48;;;4.50;;
36441;SDS011;64346;50.820;16.274;2023-07-08T15:10:19;6.88;;;3.90;;
36441;SDS011;64346;50.820;16.274;2023-07-08T15:12:47;7.00;;;3.38;;
36441;SDS011;64346;50.820;16.274;2023-07-08T15:15:30;8.77;;;4.18;;
36441;SDS011;64346;50.820;16.274;2023-07-08T15:18:00;8.30;;;3.90;;
36441;SDS011;64346;50.820;16.274;2023-07-08T15:20:27;7.18;;;3.55;;
36441;SDS011;64346;50.820;16.274;2023-07-08T15:22:55;9.00;;;4.00;;
36441;SDS011;64346;50.820;16.274;2023-07-08T15:25:22;10.27;;;4.13;;
36441;SDS011;64346;50.820;16.274;2023-07-08T15:27:53;7.30;;;3.92;;
36441;SDS011;64346;50.820;16.274;2023-07-08T15:30:24;7.55;;;3.60;;
36441;SDS011;64346;50.820;16.274;2023-07-08T15:32:53;9.07;;;4.20;;
36441;SDS011;64346;50.820;16.274;2023-07-08T15:35:22;7.57;;;3.90;;
36441;SDS011;64346;50.820;16.274;2023-07-08T15:37:54;10.15;;;5.20;;
36441;SDS011;64346;50.820;16.274;2023-07-08T15:40:27;6.70;;;3.55;;
36441;SDS011;64346;50.820;16.274;2023-07-08T15:43:01;8.05;;;3.95;;
36441;SDS011;64346;50.820;16.274;2023-07-08T15:45:33;9.85;;;5.75;;
36441;SDS011;64346;50.820;16.274;2023-07-08T15:48:02;6.68;;;3.95;;
36441;SDS011;64346;50.820;16.274;2023-07-08T15:50:32;8.57;;;3.80;;
36441;SDS011;64346;50.820;16.274;2023-07-08T15:53:00;8.00;;;3.78;;
36441;SDS011;64346;50.820;16.274;2023-07-08T15:55:30;8.13;;;3.90;;
36441;SDS011;64346;50.820;16.274;2023-07-08T15:58:10;9.95;;;4.40;;
36441;SDS011;64346;50.820;16.274;2023-07-08T16:00:58;7.85;;;4.32;;
36441;SDS011;64346;50.820;16.274;2023-07-08T16:03:28;7.20;;;4.03;;
36441;SDS011;64346;50.820;16.274;2023-07-08T16:06:00;8.77;;;4.82;;